Time;durP1;ratioP1;P1;durP2;ratioP2;P2;SDS_P1;SDS_P2;PMS_P1;PMS_P2;Temp;Humidity;BMP_temperature;BMP_pressure;BME280_temperature;BME280_humidity;BME280_pressure;Samples;Min_cycle;Max_cycle;Signal;HPM_P1;HPM_P2
2024/03/08 00:01:37;;;;;;;19.07;11.27;;;1.50;98.70;;;;;;4892833;29;20227;-80
2024/03/08 00:04:06;;;;;;;16.87;11.33;;;1.40;98.70;;;;;;4897742;29;20572;-80
2024/03/08 00:06:34;;;;;;;17.90;11.13;;;1.50;98.90;;;;;;4892440;29;20633;-81
2024/03/08 00:09:01;;;;;;;18.67;11.37;;;1.50;98.90;;;;;;4881360;29;20207;-79
2024/03/08 00:11:27;;;;;;;16.97;11.10;;;1.50;98.60;;;;;;4895804;29;20279;-80
2024/03/08 00:13:54;;;;;;;14.87;10.93;;;1.40;98.60;;;;;;4897552;29;20578;-80
2024/03/08 00:16:23;;;;;;;17.57;10.93;;;1.40;98.60;;;;;;4896931;29;20290;-80
2024/03/08 00:18:50;;;;;;;18.67;11.53;;;1.50;98.50;;;;;;4897008;29;20208;-80
2024/03/08 00:21:17;;;;;;;19.17;12.10;;;1.40;98.50;;;;;;4897345;29;20247;-80
2024/03/08 00:23:45;;;;;;;18.03;11.60;;;1.40;98.40;;;;;;4894923;29;20915;-78
2024/03/08 00:26:12;;;;;;;16.23;11.07;;;1.40;98.50;;;;;;4896719;29;20203;-80
2024/03/08 00:28:39;;;;;;;18.37;12.10;;;1.40;98.30;;;;;;4896405;29;20215;-79
2024/03/08 00:31:08;;;;;;;16.77;10.80;;;1.40;98.20;;;;;;4895503;29;20199;-80
2024/03/08 00:33:35;;;;;;;18.60;11.33;;;1.30;98.20;;;;;;4897332;29;20199;-78
2024/03/08 00:36:02;;;;;;;17.57;11.67;;;1.30;98.70;;;;;;4890423;29;20267;-78
2024/03/08 00:38:29;;;;;;;19.70;11.70;;;1.30;98.70;;;;;;4892361;29;20214;-78
2024/03/08 00:40:57;;;;;;;18.07;11.30;;;1.20;98.80;;;;;;4895941;29;20267;-81
2024/03/08 00:43:24;;;;;;;17.70;11.13;;;1.20;99.10;;;;;;4897990;29;20202;-78
2024/03/08 00:45:51;;;;;;;18.57;11.70;;;1.20;99.00;;;;;;4893773;29;20205;-78
2024/03/08 00:48:17;;;;;;;18.93;11.77;;;1.20;98.80;;;;;;4895282;29;20199;-80
2024/03/08 00:50:45;;;;;;;19.50;11.50;;;1.30;98.80;;;;;;4892567;29;20206;-78
2024/03/08 00:53:12;;;;;;;19.87;11.93;;;1.20;98.70;;;;;;4897390;29;20580;-80
2024/03/08 00:55:39;;;;;;;17.97;11.77;;;1.30;98.50;;;;;;4896599;29;20203;-78
2024/03/08 00:58:09;;;;;;;18.50;12.13;;;1.30;98.40;;;;;;4891192;29;20234;-78
2024/03/08 01:00:35;;;;;;;17.47;11.80;;;1.20;98.50;;;;;;4897240;29;20231;-78
2024/03/08 01:03:03;;;;;;;18.80;12.07;;;1.30;98.70;;;;;;4896781;29;20218;-79
2024/03/08 01:05:30;;;;;;;18.63;11.70;;;1.20;98.30;;;;;;4893867;29;20216;-79
2024/03/08 01:07:57;;;;;;;15.33;10.80;;;1.20;98.60;;;;;;4877104;29;20215;-80
2024/03/08 01:10:24;;;;;;;18.30;12.43;;;1.30;98.40;;;;;;4891427;29;20210;-79
2024/03/08 01:12:50;;;;;;;18.07;12.13;;;1.20;98.40;;;;;;4895283;29;20207;-79
2024/03/08 01:15:19;;;;;;;21.60;12.87;;;1.20;98.60;;;;;;4893545;29;20211;-78
2024/03/08 01:17:46;;;;;;;19.40;12.53;;;1.20;98.60;;;;;;4895968;29;20211;-79
2024/03/08 01:20:13;;;;;;;19.43;12.60;;;1.10;98.60;;;;;;4890589;29;20196;-78
2024/03/08 01:22:41;;;;;;;22.03;13.07;;;1.10;98.90;;;;;;4895171;29;20203;-78
2024/03/08 01:25:08;;;;;;;20.37;12.90;;;1.10;99.00;;;;;;4898080;29;20666;-79
2024/03/08 01:27:36;;;;;;;19.30;12.23;;;1.20;98.70;;;;;;4896390;29;20655;-80
2024/03/08 01:30:04;;;;;;;18.23;12.33;;;1.10;98.70;;;;;;4894296;29;20231;-78
2024/03/08 01:32:32;;;;;;;19.60;13.00;;;1.10;98.90;;;;;;4895353;29;20705;-82
2024/03/08 01:34:59;;;;;;;19.33;12.73;;;1.10;99.00;;;;;;4896027;29;20203;-78
2024/03/08 01:37:26;;;;;;;22.13;12.60;;;1.10;99.00;;;;;;4895533;29;20203;-79
2024/03/08 01:39:53;;;;;;;17.90;12.50;;;1.10;99.20;;;;;;4891002;29;20203;-79
2024/03/08 01:42:19;;;;;;;21.37;12.73;;;1.10;99.30;;;;;;4895978;29;20300;-79
2024/03/08 01:44:46;;;;;;;19.70;12.60;;;1.20;98.90;;;;;;4892817;29;20903;-79
2024/03/08 01:47:13;;;;;;;19.33;13.20;;;1.20;98.60;;;;;;4894066;29;20199;-82
2024/03/08 01:49:42;;;;;;;20.97;13.10;;;1.10;98.70;;;;;;4891582;29;20569;-79
2024/03/08 01:52:09;;;;;;;19.50;12.77;;;1.10;98.80;;;;;;4891968;29;20215;-79
2024/03/08 01:54:36;;;;;;;20.67;12.90;;;1.20;98.60;;;;;;4897111;29;20215;-79
2024/03/08 01:57:03;;;;;;;19.60;12.83;;;1.10;98.50;;;;;;4896481;29;20218;-79
2024/03/08 01:59:30;;;;;;;19.23;12.27;;;1.20;98.70;;;;;;4899112;29;20207;-78
2024/03/08 02:02:02;;;;;;;19.50;12.57;;;1.10;98.60;;;;;;4895719;29;21034;-78
2024/03/08 02:04:30;;;;;;;20.03;12.53;;;1.10;98.80;;;;;;4893369;29;20613;-81
2024/03/08 02:06:58;;;;;;;21.33;12.93;;;1.00;99.00;;;;;;4894320;29;20222;-81
2024/03/08 02:09:25;;;;;;;23.53;12.97;;;1.00;98.80;;;;;;4894669;29;20280;-78
2024/03/08 02:11:54;;;;;;;21.30;13.40;;;0.90;99.20;;;;;;4888562;29;20286;-78
2024/03/08 02:14:21;;;;;;;20.70;13.03;;;0.90;99.40;;;;;;4895603;29;20207;-78
2024/03/08 02:16:51;;;;;;;19.67;13.00;;;0.90;99.40;;;;;;4895202;29;20581;-78
2024/03/08 02:19:17;;;;;;;20.87;13.10;;;0.90;99.40;;;;;;4895321;29;20199;-78
2024/03/08 02:21:47;;;;;;;19.87;12.97;;;0.90;99.40;;;;;;4891736;29;20238;-79
2024/03/08 02:24:14;;;;;;;19.37;12.87;;;0.90;99.40;;;;;;4895386;29;20200;-78
2024/03/08 02:26:42;;;;;;;22.43;13.40;;;0.90;99.40;;;;;;4895301;29;20207;-78
2024/03/08 02:29:09;;;;;;;18.33;12.43;;;0.90;99.40;;;;;;4895823;29;20747;-78
2024/03/08 02:31:36;;;;;;;21.00;13.70;;;0.90;99.40;;;;;;4890660;29;20230;-80
2024/03/08 02:34:03;;;;;;;22.23;13.87;;;0.80;99.40;;;;;;4891554;29;20206;-78
2024/03/08 02:36:34;;;;;;;21.67;13.83;;;0.80;99.60;;;;;;4893848;29;20583;-79
2024/03/08 02:39:02;;;;;;;21.10;13.50;;;0.90;99.40;;;;;;4894842;29;20282;-79
2024/03/08 02:41:29;;;;;;;23.03;13.90;;;0.90;99.40;;;;;;4896623;29;20318;-79
2024/03/08 02:43:59;;;;;;;20.17;13.00;;;0.80;99.60;;;;;;4896968;29;20208;-77
2024/03/08 02:46:30;;;;;;;23.10;13.27;;;0.80;99.50;;;;;;4889550;29;20242;-77
2024/03/08 02:49:07;;;;;;;22.27;14.20;;;0.80;99.90;;;;;;4877577;29;20677;-80
2024/03/08 02:51:37;;;;;;;21.30;13.57;;;0.80;99.40;;;;;;4890003;29;20227;-76
2024/03/08 02:54:05;;;;;;;24.87;14.47;;;0.70;99.70;;;;;;4895773;29;20204;-79
2024/03/08 02:56:34;;;;;;;21.57;13.50;;;0.60;99.90;;;;;;4888766;29;20223;-80
2024/03/08 02:59:01;;;;;;;22.43;13.90;;;0.60;99.90;;;;;;4892435;29;20200;-86
2024/03/08 03:01:28;;;;;;;22.83;13.73;;;0.60;99.90;;;;;;4894480;29;20306;-79
2024/03/08 03:03:55;;;;;;;21.17;13.33;;;0.60;99.90;;;;;;4897900;29;20209;-78
2024/03/08 03:06:21;;;;;;;20.67;13.30;;;0.60;99.90;;;;;;4897816;29;20230;-78
2024/03/08 03:08:48;;;;;;;19.80;13.03;;;0.60;99.90;;;;;;4897129;29;20295;-78
2024/03/08 03:11:17;;;;;;;20.93;13.33;;;0.70;99.90;;;;;;4899132;29;20207;-78
2024/03/08 03:13:47;;;;;;;23.73;14.77;;;0.70;99.90;;;;;;4893497;29;20738;-78
2024/03/08 03:16:19;;;;;;;21.50;13.50;;;0.70;99.90;;;;;;4895966;29;20283;-79
2024/03/08 03:18:46;;;;;;;24.37;14.77;;;0.70;99.90;;;;;;4894303;29;20207;-78
2024/03/08 03:21:13;;;;;;;23.20;14.00;;;0.70;99.90;;;;;;4897840;29;20226;-78
2024/03/08 03:23:41;;;;;;;23.87;14.70;;;0.60;99.90;;;;;;4894029;29;20230;-78
2024/03/08 03:26:08;;;;;;;25.10;14.80;;;0.60;99.90;;;;;;4899084;29;20215;-77
2024/03/08 03:28:39;;;;;;;22.87;14.47;;;0.60;99.90;;;;;;4898403;29;20452;-78
2024/03/08 03:31:06;;;;;;;23.77;14.77;;;0.60;99.90;;;;;;4897139;29;20231;-77
2024/03/08 03:33:34;;;;;;;24.47;14.80;;;0.60;99.90;;;;;;4898151;29;20291;-82
2024/03/08 03:36:01;;;;;;;25.33;14.83;;;0.60;99.90;;;;;;4897982;29;20234;-77
2024/03/08 03:38:27;;;;;;;21.57;14.40;;;0.60;99.90;;;;;;4895910;29;20214;-77
2024/03/08 03:40:57;;;;;;;25.03;15.03;;;0.60;99.90;;;;;;4895721;29;20672;-81
2024/03/08 03:43:24;;;;;;;25.63;15.33;;;0.60;99.90;;;;;;4897900;29;20722;-78
2024/03/08 03:45:54;;;;;;;26.07;16.43;;;0.60;99.90;;;;;;4897615;29;20207;-78
2024/03/08 03:48:21;;;;;;;23.63;14.70;;;0.50;99.90;;;;;;4893027;29;20559;-79
2024/03/08 03:50:48;;;;;;;23.27;15.27;;;0.50;99.90;;;;;;4897326;29;20200;-78
2024/03/08 03:53:15;;;;;;;26.07;15.17;;;0.50;99.90;;;;;;4898586;29;20208;-78
2024/03/08 03:55:42;;;;;;;24.23;15.57;;;0.50;99.90;;;;;;4897214;29;20210;-77
2024/03/08 03:58:09;;;;;;;24.00;15.03;;;0.50;99.90;;;;;;4898317;29;20309;-78
2024/03/08 04:00:36;;;;;;;24.90;15.60;;;0.60;99.90;;;;;;4880978;29;20557;-77
2024/03/08 04:03:04;;;;;;;25.17;15.40;;;0.50;99.90;;;;;;4899450;29;20227;-77
2024/03/08 04:05:31;;;;;;;24.57;15.23;;;0.50;99.90;;;;;;4891870;29;20259;-77
2024/03/08 04:07:58;;;;;;;24.80;15.13;;;0.50;99.90;;;;;;4894289;29;20195;-77
2024/03/08 04:10:25;;;;;;;25.40;15.97;;;0.50;99.90;;;;;;4896637;29;20207;-79
2024/03/08 04:12:52;;;;;;;25.23;15.40;;;0.50;99.90;;;;;;4896909;29;20972;-77
2024/03/08 04:15:19;;;;;;;26.20;16.00;;;0.50;99.90;;;;;;4897683;29;20255;-77
2024/03/08 04:17:45;;;;;;;27.97;16.93;;;0.40;99.90;;;;;;4896483;29;20658;-78
2024/03/08 04:20:14;;;;;;;25.13;15.77;;;0.40;99.90;;;;;;4896078;29;20195;-77
2024/03/08 04:22:41;;;;;;;24.00;15.50;;;0.40;99.90;;;;;;4896262;29;20278;-77
2024/03/08 04:25:09;;;;;;;25.73;15.33;;;0.30;99.90;;;;;;4898199;29;20214;-78
2024/03/08 04:27:36;;;;;;;26.73;16.30;;;0.40;99.90;;;;;;4897382;29;20275;-78
2024/03/08 04:30:04;;;;;;;26.03;16.13;;;0.30;99.90;;;;;;4895039;29;20686;-78
2024/03/08 04:32:32;;;;;;;28.07;16.33;;;0.30;99.90;;;;;;4897303;29;20221;-78
2024/03/08 04:35:00;;;;;;;28.60;17.00;;;0.30;99.90;;;;;;4894860;29;20619;-78
2024/03/08 04:37:29;;;;;;;24.90;15.50;;;0.30;99.90;;;;;;4896159;29;20199;-79
2024/03/08 04:39:56;;;;;;;28.40;16.73;;;0.30;99.90;;;;;;4890214;29;20692;-83
2024/03/08 04:42:23;;;;;;;26.03;15.77;;;0.40;99.90;;;;;;4895042;29;20226;-78
2024/03/08 04:44:50;;;;;;;25.30;16.37;;;0.30;99.90;;;;;;4896709;29;20206;-79
2024/03/08 04:47:17;;;;;;;27.43;16.63;;;0.30;99.90;;;;;;4897024;29;20199;-79
2024/03/08 04:49:44;;;;;;;24.97;15.53;;;0.30;99.90;;;;;;4895622;29;20204;-77
2024/03/08 04:52:12;;;;;;;25.50;16.27;;;0.30;99.90;;;;;;4897249;29;20211;-80
2024/03/08 04:54:40;;;;;;;27.03;16.77;;;0.30;99.90;;;;;;4891699;29;20203;-78
2024/03/08 04:57:07;;;;;;;26.27;15.80;;;0.30;99.90;;;;;;4890584;29;20219;-78
2024/03/08 04:59:53;;;;;;;28.37;17.37;;;0.30;99.90;;;;;;4894390;29;20219;-77
2024/03/08 05:02:22;;;;;;;25.13;16.00;;;0.30;99.90;;;;;;4897866;29;20215;-77
2024/03/08 05:04:49;;;;;;;25.80;17.43;;;0.30;99.90;;;;;;4891064;29;20620;-77
2024/03/08 05:07:16;;;;;;;29.33;17.43;;;0.30;99.90;;;;;;4897458;29;20210;-78
2024/03/08 05:09:51;;;;;;;27.53;17.33;;;0.40;99.90;;;;;;4893750;29;20203;-77
2024/03/08 05:12:18;;;;;;;31.00;18.07;;;0.40;99.90;;;;;;4890631;29;20229;-78
2024/03/08 05:14:49;;;;;;;29.63;18.00;;;0.40;99.90;;;;;;4893599;29;21043;-78
2024/03/08 05:17:16;;;;;;;31.00;18.13;;;0.40;99.90;;;;;;4893988;29;20206;-76
2024/03/08 05:19:43;;;;;;;27.40;17.17;;;0.50;99.90;;;;;;4893915;29;20210;-78
2024/03/08 05:22:10;;;;;;;29.27;17.93;;;0.40;99.90;;;;;;4895950;29;20598;-77
2024/03/08 05:24:36;;;;;;;27.00;17.80;;;0.50;99.90;;;;;;4894015;29;20207;-77
2024/03/08 05:27:05;;;;;;;30.53;18.30;;;0.40;99.90;;;;;;4895727;29;20567;-78
2024/03/08 05:29:31;;;;;;;29.87;19.03;;;0.50;99.90;;;;;;4894397;29;20206;-79
2024/03/08 05:31:59;;;;;;;27.60;17.27;;;0.50;99.90;;;;;;4897124;29;20220;-79
2024/03/08 05:34:28;;;;;;;27.70;17.60;;;0.50;99.90;;;;;;4893290;29;21571;-79
2024/03/08 05:36:55;;;;;;;27.87;18.00;;;0.50;99.90;;;;;;4895656;29;20623;-78
2024/03/08 05:39:22;;;;;;;29.47;17.53;;;0.50;99.90;;;;;;4895594;29;20203;-78
2024/03/08 05:41:49;;;;;;;29.17;17.67;;;0.60;99.90;;;;;;4896627;29;20693;-78
2024/03/08 05:44:17;;;;;;;27.70;17.17;;;0.60;99.90;;;;;;4895605;29;20207;-78
2024/03/08 05:46:44;;;;;;;28.73;17.47;;;0.60;99.90;;;;;;4894630;29;20813;-81
2024/03/08 05:49:11;;;;;;;28.67;17.10;;;0.60;99.90;;;;;;4893340;29;20582;-79
2024/03/08 05:51:39;;;;;;;27.73;17.40;;;0.70;99.90;;;;;;4895470;29;21022;-82
2024/03/08 05:54:09;;;;;;;29.07;17.10;;;0.70;99.90;;;;;;4895391;29;20202;-80
2024/03/08 05:56:37;;;;;;;29.73;17.60;;;0.70;99.90;;;;;;4892442;29;20573;-81
2024/03/08 05:59:04;;;;;;;32.20;17.43;;;0.70;99.90;;;;;;4890659;29;20203;-79
2024/03/08 06:01:32;;;;;;;29.23;17.60;;;0.70;99.90;;;;;;4895023;29;20207;-80
2024/03/08 06:03:59;;;;;;;27.53;17.30;;;0.70;99.90;;;;;;4888513;29;20231;-79
2024/03/08 06:06:26;;;;;;;28.27;17.27;;;0.80;99.90;;;;;;4895204;29;20235;-81
2024/03/08 06:08:53;;;;;;;28.27;16.90;;;0.80;99.90;;;;;;4893219;29;20214;-78
2024/03/08 06:11:21;;;;;;;27.00;16.57;;;0.80;99.90;;;;;;4893267;29;20208;-82
2024/03/08 06:13:59;;;;;;;25.53;16.40;;;0.80;99.90;;;;;;4887588;29;20205;-78
2024/03/08 06:16:28;;;;;;;27.67;17.23;;;0.80;99.90;;;;;;4889603;29;20211;-79
2024/03/08 06:18:57;;;;;;;26.50;16.17;;;0.90;99.90;;;;;;4895742;29;20290;-78
2024/03/08 06:21:25;;;;;;;27.80;15.97;;;1.00;99.90;;;;;;4895619;29;20291;-78
2024/03/08 06:23:54;;;;;;;25.70;15.57;;;1.00;99.90;;;;;;4888811;29;20326;-78
2024/03/08 06:26:21;;;;;;;24.87;15.47;;;1.20;99.70;;;;;;4877021;29;20199;-78
2024/03/08 06:28:48;;;;;;;25.13;15.90;;;1.20;99.40;;;;;;4893692;29;20283;-80
2024/03/08 06:31:15;;;;;;;26.23;15.73;;;0.90;99.40;;;;;;4891638;29;20553;-78
2024/03/08 06:33:42;;;;;;;25.10;15.83;;;1.00;99.40;;;;;;4893167;29;20256;-78
2024/03/08 06:36:11;;;;;;;27.40;15.50;;;1.10;99.40;;;;;;4897067;29;20579;-77
2024/03/08 06:38:42;;;;;;;23.30;14.93;;;1.20;99.20;;;;;;4898479;29;20230;-80
2024/03/08 06:41:15;;;;;;;25.80;15.63;;;1.30;99.00;;;;;;4896268;29;20206;-78
2024/03/08 06:43:42;;;;;;;22.93;14.90;;;1.30;99.00;;;;;;4896147;29;20254;-77
2024/03/08 06:46:09;;;;;;;26.03;14.83;;;1.20;99.00;;;;;;4898366;29;20570;-77
2024/03/08 06:48:37;;;;;;;23.50;14.80;;;1.40;98.80;;;;;;4896015;29;20219;-78
2024/03/08 06:51:04;;;;;;;24.67;14.67;;;1.40;98.20;;;;;;4896946;29;20199;-76
2024/03/08 06:53:32;;;;;;;24.77;15.07;;;1.40;98.00;;;;;;4896840;29;20211;-76
2024/03/08 06:55:59;;;;;;;25.07;14.83;;;1.30;98.30;;;;;;4899801;29;20203;-76
2024/03/08 06:58:25;;;;;;;24.70;15.33;;;1.50;98.10;;;;;;4896293;29;20196;-76
2024/03/08 07:00:52;;;;;;;24.43;15.17;;;1.50;97.60;;;;;;4902761;29;20206;-79
2024/03/08 07:03:22;;;;;;;23.37;14.33;;;1.50;97.90;;;;;;4900340;29;20720;-78
2024/03/08 07:05:49;;;;;;;25.37;14.83;;;1.60;97.60;;;;;;4899197;29;20246;-78
2024/03/08 07:08:16;;;;;;;24.53;15.13;;;1.50;97.70;;;;;;4896543;29;20207;-80
2024/03/08 07:10:45;;;;;;;26.37;15.50;;;1.60;97.80;;;;;;4898281;29;20290;-80
2024/03/08 07:13:12;;;;;;;21.93;14.30;;;1.70;97.30;;;;;;4898001;29;20215;-79
2024/03/08 07:15:39;;;;;;;23.50;14.73;;;1.70;97.20;;;;;;4898711;29;20211;-79
2024/03/08 07:18:08;;;;;;;25.57;14.97;;;1.70;97.10;;;;;;4899959;29;20203;-78
2024/03/08 07:20:37;;;;;;;25.93;14.90;;;1.80;97.00;;;;;;4898328;29;20215;-79
2024/03/08 07:23:04;;;;;;;24.93;14.73;;;1.90;96.70;;;;;;4898218;29;20231;-78
2024/03/08 07:25:51;;;;;;;25.73;15.07;;;2.10;96.30;;;;;;4900130;29;20200;-78
2024/03/08 07:28:18;;;;;;;23.50;14.07;;;2.20;95.90;;;;;;4895825;29;20681;-81
2024/03/08 07:31:01;;;;;;;24.67;15.43;;;2.40;95.40;;;;;;4896845;29;20210;-79
2024/03/08 07:33:28;;;;;;;24.07;15.43;;;2.30;94.80;;;;;;4893383;29;20217;-80
2024/03/08 07:35:54;;;;;;;25.13;14.50;;;2.30;95.50;;;;;;4895402;29;20213;-79
2024/03/08 07:38:22;;;;;;;24.10;14.70;;;2.40;95.10;;;;;;4898845;29;20697;-81
2024/03/08 07:40:48;;;;;;;21.70;14.23;;;2.50;94.50;;;;;;4896987;29;20255;-78
2024/03/08 07:43:17;;;;;;;24.70;14.27;;;2.40;95.20;;;;;;4897827;29;20234;-80
2024/03/08 07:45:44;;;;;;;22.87;14.63;;;2.60;94.80;;;;;;4896040;29;20203;-78
2024/03/08 07:48:10;;;;;;;24.33;15.10;;;2.50;94.50;;;;;;4897932;29;20204;-78
2024/03/08 07:50:38;;;;;;;21.97;14.23;;;2.50;95.00;;;;;;4895743;29;20226;-79
2024/03/08 07:53:06;;;;;;;22.67;14.57;;;2.90;94.60;;;;;;4896364;29;20295;-78
2024/03/08 07:55:33;;;;;;;21.87;14.10;;;2.90;93.70;;;;;;4895100;29;20199;-80
2024/03/08 07:57:59;;;;;;;21.57;13.93;;;3.10;93.20;;;;;;4897112;29;20227;-81
2024/03/08 08:00:28;;;;;;;23.07;14.70;;;2.90;93.30;;;;;;4896832;29;20203;-78
2024/03/08 08:02:55;;;;;;;23.77;14.87;;;2.90;93.80;;;;;;4894526;29;20710;-78
2024/03/08 08:05:21;;;;;;;25.93;14.10;;;3.30;93.20;;;;;;4897821;29;20208;-82
2024/03/08 08:07:49;;;;;;;22.60;14.20;;;3.60;92.20;;;;;;4893211;29;20585;-79
2024/03/08 08:10:18;;;;;;;20.23;13.37;;;3.70;91.80;;;;;;4897367;29;20195;-80
2024/03/08 08:12:48;;;;;;;22.70;14.30;;;3.80;91.20;;;;;;4895291;29;20606;-80
2024/03/08 08:15:15;;;;;;;22.43;13.43;;;4.20;90.70;;;;;;4895867;29;20206;-80
2024/03/08 08:17:44;;;;;;;21.50;14.97;;;4.20;90.50;;;;;;4893965;29;20211;-79
2024/03/08 08:20:12;;;;;;;24.60;14.27;;;4.00;89.10;;;;;;4896049;29;20203;-81
2024/03/08 08:22:40;;;;;;;21.30;14.03;;;3.90;90.50;;;;;;4893735;29;20227;-81
2024/03/08 08:25:07;;;;;;;22.10;14.03;;;4.10;90.80;;;;;;4893842;29;20195;-82
2024/03/08 08:27:34;;;;;;;21.80;13.97;;;4.60;90.00;;;;;;4893091;29;20209;-85
2024/03/08 08:30:00;;;;;;;20.87;13.90;;;4.80;88.90;;;;;;4893886;29;20206;-82
2024/03/08 08:32:27;;;;;;;21.07;13.10;;;4.20;89.90;;;;;;4890427;29;20196;-83
2024/03/08 08:34:55;;;;;;;22.63;14.00;;;3.50;93.00;;;;;;4896158;29;20207;-82
2024/03/08 08:37:23;;;;;;;22.80;14.50;;;3.60;91.50;;;;;;4896985;29;20211;-84
2024/03/08 08:39:51;;;;;;;22.27;13.50;;;4.10;91.60;;;;;;4895551;29;20245;-86
2024/03/08 08:42:18;;;;;;;22.27;13.33;;;4.40;91.00;;;;;;4895341;29;20210;-83
2024/03/08 08:44:44;;;;;;;23.23;13.77;;;5.00;89.00;;;;;;4897256;29;20206;-81
2024/03/08 08:47:11;;;;;;;19.97;13.73;;;5.40;83.40;;;;;;4888029;29;20207;-81
2024/03/08 08:49:38;;;;;;;20.53;13.30;;;5.60;81.90;;;;;;4896408;29;20209;-81
2024/03/08 08:52:07;;;;;;;20.63;13.53;;;5.50;80.40;;;;;;4896095;29;20210;-81
2024/03/08 08:54:34;;;;;;;19.57;12.83;;;5.40;79.70;;;;;;4897167;29;20203;-82
2024/03/08 08:57:02;;;;;;;19.52;12.48;;;5.50;82.50;;;;;;4894200;29;20215;-83
2024/03/08 08:59:30;;;;;;;16.42;12.40;;;6.20;76.60;;;;;;4896664;29;20199;-84
2024/03/08 09:01:56;;;;;;;18.13;12.57;;;7.10;71.90;;;;;;4896362;29;20206;-82
2024/03/08 09:04:24;;;;;;;18.30;12.63;;;7.40;58.40;;;;;;4896638;29;20230;-86
2024/03/08 09:06:50;;;;;;;18.80;12.50;;;7.40;52.20;;;;;;4901253;29;20672;-83
2024/03/08 09:09:19;;;;;;;18.10;13.05;;;8.30;46.90;;;;;;4898453;29;20210;-84
2024/03/08 09:11:46;;;;;;;17.48;12.90;;;8.40;44.10;;;;;;4891326;29;20204;-82
2024/03/08 09:14:13;;;;;;;18.20;13.13;;;9.30;39.20;;;;;;4897922;29;20211;-90
2024/03/08 09:16:39;;;;;;;18.05;12.75;;;10.10;29.30;;;;;;4897038;29;20200;-84
2024/03/08 09:19:06;;;;;;;16.75;12.27;;;9.40;33.30;;;;;;4895492;29;20577;-82
2024/03/08 09:21:34;;;;;;;14.55;11.73;;;9.90;32.00;;;;;;4895934;29;20203;-82
2024/03/08 09:24:01;;;;;;;18.38;12.95;;;11.10;24.50;;;;;;4892481;29;20310;-85
2024/03/08 09:26:29;;;;;;;18.98;13.38;;;11.20;23.00;;;;;;4893675;29;20195;-82
2024/03/08 09:28:56;;;;;;;17.65;13.35;;;10.50;24.10;;;;;;4892583;29;20207;-82
2024/03/08 09:31:23;;;;;;;17.75;13.02;;;11.40;24.80;;;;;;4896054;29;20207;-83
2024/03/08 09:33:50;;;;;;;15.85;12.70;;;12.40;20.50;;;;;;4895407;29;20207;-82
2024/03/08 09:36:17;;;;;;;17.38;13.40;;;12.60;20.60;;;;;;4895444;29;20204;-84
2024/03/08 09:38:44;;;;;;;16.23;13.75;;;13.30;18.80;;;;;;4893358;29;20207;-83
2024/03/08 09:41:12;;;;;;;17.23;14.18;;;14.10;16.50;;;;;;4900020;29;20195;-88
2024/03/08 09:43:40;;;;;;;18.52;14.20;;;13.20;15.90;;;;;;4897648;29;20302;-87
2024/03/08 09:46:08;;;;;;;17.60;13.77;;;13.50;16.20;;;;;;4891687;29;20203;-84
2024/03/08 09:48:35;;;;;;;17.92;13.52;;;14.00;15.30;;;;;;4893701;29;20887;-82
2024/03/08 09:51:03;;;;;;;19.10;13.85;;;15.00;14.00;;;;;;4895367;29;20199;-82
2024/03/08 09:53:30;;;;;;;15.38;13.73;;;15.70;11.30;;;;;;4894427;29;20207;-80
2024/03/08 09:55:57;;;;;;;16.77;14.00;;;15.40;12.70;;;;;;4895525;29;20259;-81
2024/03/08 09:58:38;;;;;;;18.85;15.63;;;15.70;12.50;;;;;;4895326;29;20226;-80
2024/03/08 10:01:06;;;;;;;16.83;14.10;;;15.60;11.50;;;;;;4885056;29;20206;-80
2024/03/08 10:03:33;;;;;;;17.42;14.85;;;15.20;12.70;;;;;;4895959;29;20604;-81
2024/03/08 10:06:01;;;;;;;16.58;14.52;;;15.20;12.50;;;;;;4893392;29;20611;-80
2024/03/08 10:08:29;;;;;;;17.45;14.73;;;16.40;10.30;;;;;;4892474;29;20200;-81
2024/03/08 10:10:57;;;;;;;18.70;14.75;;;16.10;10.40;;;;;;4895882;29;20946;-81
2024/03/08 10:13:26;;;;;;;17.00;14.63;;;16.00;11.00;;;;;;4891839;29;20269;-80
2024/03/08 10:15:53;;;;;;;16.02;13.80;;;15.70;11.70;;;;;;4890880;29;20281;-90
2024/03/08 10:18:22;;;;;;;18.58;14.00;;;16.00;10.90;;;;;;4896245;29;20203;-81
2024/03/08 10:21:04;;;;;;;15.25;13.63;;;16.00;10.90;;;;;;4895377;29;20208;-81
2024/03/08 10:23:31;;;;;;;15.07;13.25;;;14.20;12.10;;;;;;4894342;29;20225;-83
2024/03/08 10:25:58;;;;;;;17.10;13.93;;;12.20;16.00;;;;;;4889785;29;20215;-83
2024/03/08 10:28:25;;;;;;;15.13;12.98;;;12.90;15.50;;;;;;4890450;29;20230;-82
2024/03/08 10:30:52;;;;;;;16.20;13.57;;;13.40;16.00;;;;;;4893421;29;20263;-86
2024/03/08 10:33:19;;;;;;;15.13;12.45;;;14.00;14.20;;;;;;4897348;29;20567;-83
2024/03/08 10:35:47;;;;;;;16.23;12.57;;;15.00;12.60;;;;;;4899664;29;20214;-82
2024/03/08 10:38:19;;;;;;;13.98;12.13;;;14.80;12.10;;;;;;4890717;29;20207;-83
2024/03/08 10:40:50;;;;;;;14.25;12.60;;;14.70;12.70;;;;;;4893254;29;20195;-90
2024/03/08 10:43:24;;;;;;;13.68;12.18;;;13.30;13.80;;;;;;4895193;29;20251;-85
2024/03/08 10:46:06;;;;;;;13.15;11.60;;;13.40;14.60;;;;;;4895453;29;20207;-85
2024/03/08 10:48:37;;;;;;;15.48;12.50;;;13.80;14.70;;;;;;4890104;29;20643;-84
2024/03/08 10:51:07;;;;;;;16.25;12.50;;;12.60;15.40;;;;;;4888537;29;20238;-84
2024/03/08 10:53:36;;;;;;;16.02;13.02;;;12.60;16.60;;;;;;4893577;29;20658;-82
2024/03/08 10:56:07;;;;;;;16.13;12.48;;;12.80;16.20;;;;;;4882862;29;20287;-80
2024/03/08 10:58:36;;;;;;;15.27;12.05;;;12.80;17.30;;;;;;4893663;29;20686;-82
2024/03/08 11:01:04;;;;;;;14.95;11.85;;;13.20;15.20;;;;;;4894633;29;20208;-80
2024/03/08 11:03:48;;;;;;;14.75;11.45;;;13.60;14.40;;;;;;4892842;29;20230;-81
2024/03/08 11:06:18;;;;;;;13.98;11.48;;;13.00;15.30;;;;;;4890362;29;20219;-81
2024/03/08 11:08:46;;;;;;;14.60;11.90;;;12.70;16.20;;;;;;4895063;29;20628;-90
2024/03/08 11:11:30;;;;;;;13.43;11.88;;;13.00;16.60;;;;;;4895169;29;20204;-81
2024/03/08 11:13:57;;;;;;;13.48;11.18;;;13.90;14.60;;;;;;4891309;29;20239;-81
2024/03/08 11:16:43;;;;;;;15.90;12.38;;;13.90;14.90;;;;;;4893050;29;20200;-82
2024/03/08 11:19:28;;;;;;;14.75;12.15;;;13.30;15.60;;;;;;4889011;29;20202;-82
2024/03/08 11:22:04;;;;;;;14.88;12.30;;;12.40;16.70;;;;;;4892356;29;20538;-81
2024/03/08 11:24:41;;;;;;;14.23;12.00;;;12.00;18.40;;;;;;4891347;29;20227;-81
2024/03/08 11:27:09;;;;;;;14.57;11.25;;;11.90;18.40;;;;;;4887416;29;20243;-81
2024/03/08 11:29:40;;;;;;;17.25;11.80;;;11.70;18.50;;;;;;4896759;29;20586;-83
2024/03/08 11:32:10;;;;;;;15.65;12.38;;;11.00;19.80;;;;;;4896650;29;20206;-86
2024/03/08 11:34:37;;;;;;;16.48;11.73;;;10.90;20.70;;;;;;4898924;29;20218;-80
2024/03/08 11:37:12;;;;;;;15.35;11.80;;;10.80;20.70;;;;;;4897970;29;20199;-84
2024/03/08 11:39:40;;;;;;;16.08;11.80;;;10.70;21.20;;;;;;4896762;29;20667;-80
2024/03/08 11:42:07;;;;;;;15.05;12.07;;;10.50;23.20;;;;;;4899082;29;20211;-81
2024/03/08 11:44:35;;;;;;;15.43;11.13;;;10.50;22.80;;;;;;4890665;29;20231;-81
2024/03/08 11:47:04;;;;;;;19.17;12.43;;;10.30;23.90;;;;;;4896507;29;20211;-81
2024/03/08 11:49:33;;;;;;;17.38;11.68;;;10.00;23.60;;;;;;4896113;29;20211;-80
2024/03/08 11:52:00;;;;;;;18.20;11.90;;;10.10;23.70;;;;;;4898866;29;20942;-81
2024/03/08 11:54:29;;;;;;;18.45;11.90;;;10.10;23.70;;;;;;4891689;29;20667;-82
2024/03/08 11:57:00;;;;;;;17.27;11.95;;;10.00;23.60;;;;;;4895764;29;20315;-80
2024/03/08 11:59:27;;;;;;;16.73;11.90;;;10.00;23.70;;;;;;4894826;29;20199;-81
2024/03/08 12:02:03;;;;;;;20.40;12.48;;;9.50;24.70;;;;;;4896853;29;20195;-81
2024/03/08 12:04:30;;;;;;;17.48;11.90;;;9.70;25.20;;;;;;4898079;29;20310;-81
2024/03/08 12:06:59;;;;;;;17.20;12.25;;;9.50;26.70;;;;;;4890528;29;20626;-88
2024/03/08 12:09:28;;;;;;;17.13;12.07;;;9.60;27.50;;;;;;4895735;29;20198;-80
2024/03/08 12:11:54;;;;;;;16.73;12.70;;;9.90;27.00;;;;;;4897786;29;20200;-81
2024/03/08 12:14:22;;;;;;;17.48;12.02;;;9.80;27.30;;;;;;4897629;29;20211;-80
2024/03/08 12:16:51;;;;;;;17.10;11.45;;;9.80;26.30;;;;;;4897426;29;20207;-83
2024/03/08 12:19:18;;;;;;;17.65;12.35;;;9.60;26.10;;;;;;4896619;29;20199;-82
2024/03/08 12:21:48;;;;;;;17.92;12.70;;;9.60;26.70;;;;;;4898293;29;20207;-82
2024/03/08 12:24:19;;;;;;;17.50;12.63;;;9.60;27.30;;;;;;4893645;29;20902;-81
2024/03/08 12:26:48;;;;;;;18.17;12.77;;;9.70;27.60;;;;;;4894859;29;20211;-82
2024/03/08 12:29:17;;;;;;;19.35;11.60;;;9.80;27.40;;;;;;4891595;29;20655;-81
2024/03/08 12:31:44;;;;;;;17.45;12.32;;;10.10;23.70;;;;;;4895582;29;20221;-83
2024/03/08 12:34:13;;;;;;;16.15;11.02;;;10.10;23.80;;;;;;4896657;29;20580;-82
2024/03/08 12:36:47;;;;;;;15.85;10.88;;;10.30;23.90;;;;;;4889974;29;20204;-83
2024/03/08 12:39:15;;;;;;;15.45;10.98;;;10.30;23.90;;;;;;4891406;29;20199;-82
2024/03/08 12:41:43;;;;;;;16.58;12.48;;;10.20;23.80;;;;;;4897513;29;20682;-82